sensor_id;sensor_type;location;lat;lon;timestamp;pressure;altitude;pressure_sealevel;temperature;humidity
34979;BME280;21185;50.978;13.720;2023-05-03T00:00:45;99248.09;;;12.63;54.84
34979;BME280;21185;50.978;13.720;2023-05-03T00:05:47;99252.63;;;12.61;54.89
34979;BME280;21185;50.978;13.720;2023-05-03T00:10:50;99254.88;;;12.56;55.02
34979;BME280;21185;50.978;13.720;2023-05-03T00:15:52;99249.00;;;12.54;55.12
34979;BME280;21185;50.978;13.720;2023-05-03T00:20:54;99249.28;;;12.51;55.17
34979;BME280;21185;50.978;13.720;2023-05-03T00:25:56;99256.75;;;12.46;55.34
34979;BME280;21185;50.978;13.720;2023-05-03T00:31:06;99239.50;;;12.45;55.36
34979;BME280;21185;50.978;13.720;2023-05-03T00:36:11;99241.13;;;12.46;55.24
34979;BME280;21185;50.978;13.720;2023-05-03T00:41:13;99243.06;;;12.44;55.33
34979;BME280;21185;50.978;13.720;2023-05-03T00:46:16;99251.97;;;12.41;55.31
34979;BME280;21185;50.978;13.720;2023-05-03T00:51:19;99243.34;;;12.41;55.29
34979;BME280;21185;50.978;13.720;2023-05-03T00:56:22;99242.69;;;12.39;55.36
34979;BME280;21185;50.978;13.720;2023-05-03T01:01:24;99248.50;;;12.32;55.34
34979;BME280;21185;50.978;13.720;2023-05-03T01:06:44;99250.44;;;12.30;55.45
34979;BME280;21185;50.978;13.720;2023-05-03T01:17:19;99241.72;;;12.22;55.34
34979;BME280;21185;50.978;13.720;2023-05-03T01:27:35;99245.75;;;12.16;55.50
34979;BME280;21185;50.978;13.720;2023-05-03T01:37:54;99245.00;;;12.06;55.52
34979;BME280;21185;50.978;13.720;2023-05-03T01:42:58;99242.53;;;12.05;55.46
34979;BME280;21185;50.978;13.720;2023-05-03T01:48:00;99236.97;;;11.99;55.38
34979;BME280;21185;50.978;13.720;2023-05-03T01:53:02;99249.44;;;11.96;55.61
34979;BME280;21185;50.978;13.720;2023-05-03T01:58:04;99242.38;;;11.88;55.55
34979;BME280;21185;50.978;13.720;2023-05-03T02:03:06;99240.22;;;11.84;55.63
34979;BME280;21185;50.978;13.720;2023-05-03T02:08:08;99240.50;;;11.81;55.53
34979;BME280;21185;50.978;13.720;2023-05-03T02:13:10;99242.69;;;11.76;55.27
34979;BME280;21185;50.978;13.720;2023-05-03T02:18:12;99234.38;;;11.72;55.43
34979;BME280;21185;50.978;13.720;2023-05-03T02:23:15;99235.78;;;11.66;54.90
34979;BME280;21185;50.978;13.720;2023-05-03T02:28:17;99237.16;;;11.61;54.77
34979;BME280;21185;50.978;13.720;2023-05-03T02:33:18;99232.94;;;11.60;54.76
34979;BME280;21185;50.978;13.720;2023-05-03T02:38:22;99240.72;;;11.60;54.49
34979;BME280;21185;50.978;13.720;2023-05-03T02:43:25;99240.88;;;11.58;54.72
34979;BME280;21185;50.978;13.720;2023-05-03T02:48:27;99249.63;;;11.57;54.52
34979;BME280;21185;50.978;13.720;2023-05-03T02:53:30;99249.09;;;11.54;54.55
34979;BME280;21185;50.978;13.720;2023-05-03T02:58:35;99255.41;;;11.51;54.46
34979;BME280;21185;50.978;13.720;2023-05-03T03:03:38;99257.47;;;11.48;54.39
34979;BME280;21185;50.978;13.720;2023-05-03T03:08:42;99261.88;;;11.47;54.45
34979;BME280;21185;50.978;13.720;2023-05-03T03:13:44;99260.22;;;11.46;54.41
34979;BME280;21185;50.978;13.720;2023-05-03T03:18:46;99275.00;;;11.46;54.40
34979;BME280;21185;50.978;13.720;2023-05-03T03:23:48;99282.13;;;11.44;54.38
34979;BME280;21185;50.978;13.720;2023-05-03T03:28:50;99278.69;;;11.43;54.47
34979;BME280;21185;50.978;13.720;2023-05-03T03:33:55;99279.94;;;11.39;54.40
34979;BME280;21185;50.978;13.720;2023-05-03T03:39:01;99281.47;;;11.32;54.34
34979;BME280;21185;50.978;13.720;2023-05-03T03:44:03;99284.66;;;11.26;54.18
34979;BME280;21185;50.978;13.720;2023-05-03T03:49:05;99285.88;;;11.22;54.12
34979;BME280;21185;50.978;13.720;2023-05-03T03:54:06;99294.66;;;11.21;54.11
34979;BME280;21185;50.978;13.720;2023-05-03T03:59:11;99296.56;;;11.19;53.88
34979;BME280;21185;50.978;13.720;2023-05-03T04:04:14;99301.09;;;11.17;53.91
34979;BME280;21185;50.978;13.720;2023-05-03T04:09:18;99309.41;;;11.20;54.00
34979;BME280;21185;50.978;13.720;2023-05-03T04:14:20;99316.53;;;11.18;53.93
34979;BME280;21185;50.978;13.720;2023-05-03T04:19:23;99322.53;;;11.19;54.01
34979;BME280;21185;50.978;13.720;2023-05-03T04:24:27;99340.59;;;11.20;54.02
34979;BME280;21185;50.978;13.720;2023-05-03T04:29:32;99337.31;;;11.18;54.02
34979;BME280;21185;50.978;13.720;2023-05-03T04:34:34;99349.06;;;11.13;53.96
34979;BME280;21185;50.978;13.720;2023-05-03T04:39:38;99352.09;;;11.08;54.02
34979;BME280;21185;50.978;13.720;2023-05-03T04:44:43;99348.25;;;11.12;54.04
34979;BME280;21185;50.978;13.720;2023-05-03T04:49:46;99362.06;;;11.13;53.90
34979;BME280;21185;50.978;13.720;2023-05-03T04:54:48;99364.53;;;11.14;53.94
34979;BME280;21185;50.978;13.720;2023-05-03T04:59:50;99362.47;;;11.18;53.70
34979;BME280;21185;50.978;13.720;2023-05-03T05:04:55;99362.19;;;11.21;53.69
34979;BME280;21185;50.978;13.720;2023-05-03T05:09:57;99368.75;;;11.25;53.60
34979;BME280;21185;50.978;13.720;2023-05-03T05:14:59;99368.75;;;11.25;53.62
34979;BME280;21185;50.978;13.720;2023-05-03T05:20:02;99379.28;;;11.23;53.45
34979;BME280;21185;50.978;13.720;2023-05-03T05:25:08;99383.50;;;11.24;53.25
34979;BME280;21185;50.978;13.720;2023-05-03T05:30:11;99389.53;;;11.25;53.30
34979;BME280;21185;50.978;13.720;2023-05-03T05:35:16;99392.28;;;11.23;53.24
34979;BME280;21185;50.978;13.720;2023-05-03T05:40:20;99396.66;;;11.23;53.17
34979;BME280;21185;50.978;13.720;2023-05-03T05:45:28;99398.41;;;11.32;53.07
34979;BME280;21185;50.978;13.720;2023-05-03T05:50:31;99403.47;;;11.33;52.60
34979;BME280;21185;50.978;13.720;2023-05-03T05:55:38;99405.25;;;11.33;52.32
34979;BME280;21185;50.978;13.720;2023-05-03T06:00:41;99409.22;;;11.37;52.14
34979;BME280;21185;50.978;13.720;2023-05-03T06:05:43;99401.81;;;11.42;52.05
34979;BME280;21185;50.978;13.720;2023-05-03T06:10:46;99413.44;;;11.48;52.09
34979;BME280;21185;50.978;13.720;2023-05-03T06:15:48;99415.59;;;11.52;52.08
34979;BME280;21185;50.978;13.720;2023-05-03T06:20:50;99419.28;;;11.59;52.09
34979;BME280;21185;50.978;13.720;2023-05-03T06:25:54;99410.38;;;11.62;51.92
34979;BME280;21185;50.978;13.720;2023-05-03T06:30:57;99419.25;;;11.69;51.88
34979;BME280;21185;50.978;13.720;2023-05-03T06:36:01;99409.13;;;11.76;51.81
34979;BME280;21185;50.978;13.720;2023-05-03T06:41:03;99415.69;;;11.80;51.80
34979;BME280;21185;50.978;13.720;2023-05-03T06:46:05;99413.78;;;11.82;51.64
34979;BME280;21185;50.978;13.720;2023-05-03T06:51:07;99413.03;;;11.99;51.53
34979;BME280;21185;50.978;13.720;2023-05-03T06:56:09;99419.28;;;12.06;51.52
34979;BME280;21185;50.978;13.720;2023-05-03T07:01:11;99414.63;;;12.10;51.45
34979;BME280;21185;50.978;13.720;2023-05-03T07:06:13;99423.97;;;12.30;51.13
34979;BME280;21185;50.978;13.720;2023-05-03T07:11:19;99413.06;;;12.44;50.83
34979;BME280;21185;50.978;13.720;2023-05-03T07:16:24;99410.34;;;12.63;50.74
34979;BME280;21185;50.978;13.720;2023-05-03T07:21:26;99403.13;;;12.75;50.65
34979;BME280;21185;50.978;13.720;2023-05-03T07:26:30;99405.75;;;12.75;50.29
34979;BME280;21185;50.978;13.720;2023-05-03T07:31:32;99405.31;;;12.80;50.10
34979;BME280;21185;50.978;13.720;2023-05-03T07:36:34;99403.28;;;12.91;49.74
34979;BME280;21185;50.978;13.720;2023-05-03T07:41:36;99408.19;;;12.94;49.34
34979;BME280;21185;50.978;13.720;2023-05-03T07:46:38;99399.34;;;13.05;49.30
34979;BME280;21185;50.978;13.720;2023-05-03T07:51:40;99405.88;;;13.09;49.04
34979;BME280;21185;50.978;13.720;2023-05-03T07:56:42;99397.19;;;13.18;49.26
34979;BME280;21185;50.978;13.720;2023-05-03T08:01:44;99407.69;;;13.26;49.12
34979;BME280;21185;50.978;13.720;2023-05-03T08:06:46;99397.63;;;13.32;48.86
34979;BME280;21185;50.978;13.720;2023-05-03T08:11:48;99397.16;;;13.36;48.70
34979;BME280;21185;50.978;13.720;2023-05-03T08:16:50;99396.91;;;13.47;48.50
34979;BME280;21185;50.978;13.720;2023-05-03T08:21:52;99399.13;;;13.16;48.98
34979;BME280;21185;50.978;13.720;2023-05-03T08:26:55;99400.63;;;13.19;49.01
34979;BME280;21185;50.978;13.720;2023-05-03T08:31:57;99390.81;;;13.39;48.42
34979;BME280;21185;50.978;13.720;2023-05-03T08:36:59;99395.31;;;13.54;48.57
34979;BME280;21185;50.978;13.720;2023-05-03T08:42:06;99401.06;;;13.58;48.58
34979;BME280;21185;50.978;13.720;2023-05-03T08:47:08;99401.91;;;13.67;48.55
34979;BME280;21185;50.978;13.720;2023-05-03T08:52:11;99401.38;;;13.89;48.02
34979;BME280;21185;50.978;13.720;2023-05-03T08:57:15;99389.25;;;14.14;47.96
34979;BME280;21185;50.978;13.720;2023-05-03T09:02:19;99400.91;;;14.27;47.74
34979;BME280;21185;50.978;13.720;2023-05-03T09:07:22;99395.09;;;14.42;47.51
34979;BME280;21185;50.978;13.720;2023-05-03T09:12:37;99397.31;;;14.29;47.03
34979;BME280;21185;50.978;13.720;2023-05-03T09:17:42;99400.75;;;13.95;47.41
34979;BME280;21185;50.978;13.720;2023-05-03T09:22:49;99392.53;;;14.16;47.18
34979;BME280;21185;50.978;13.720;2023-05-03T09:28:03;99393.63;;;14.47;46.86
34979;BME280;21185;50.978;13.720;2023-05-03T09:33:05;99394.31;;;14.66;46.90
34979;BME280;21185;50.978;13.720;2023-05-03T09:38:28;99394.00;;;14.61;46.56
34979;BME280;21185;50.978;13.720;2023-05-03T09:43:32;99392.81;;;14.47;46.80
34979;BME280;21185;50.978;13.720;2023-05-03T09:48:36;99382.41;;;14.63;46.74
34979;BME280;21185;50.978;13.720;2023-05-03T09:53:39;99382.75;;;14.76;46.35
34979;BME280;21185;50.978;13.720;2023-05-03T09:58:42;99379.50;;;14.90;46.20
34979;BME280;21185;50.978;13.720;2023-05-03T10:03:46;99385.03;;;14.71;45.50
34979;BME280;21185;50.978;13.720;2023-05-03T10:09:17;99376.84;;;14.50;45.61
34979;BME280;21185;50.978;13.720;2023-05-03T10:14:22;99377.81;;;14.57;45.36
34979;BME280;21185;50.978;13.720;2023-05-03T10:24:34;99357.25;;;14.54;44.21
34979;BME280;21185;50.978;13.720;2023-05-03T10:34:46;99364.13;;;14.79;44.76
34979;BME280;21185;50.978;13.720;2023-05-03T10:39:51;99350.91;;;14.81;44.99
34979;BME280;21185;50.978;13.720;2023-05-03T10:44:54;99356.28;;;14.63;44.98
34979;BME280;21185;50.978;13.720;2023-05-03T10:55:21;99358.91;;;14.96;44.63
34979;BME280;21185;50.978;13.720;2023-05-03T11:05:33;99352.69;;;15.05;44.52
34979;BME280;21185;50.978;13.720;2023-05-03T11:10:35;99350.41;;;15.10;44.22
34979;BME280;21185;50.978;13.720;2023-05-03T11:15:37;99353.69;;;15.12;44.17
34979;BME280;21185;50.978;13.720;2023-05-03T11:20:39;99343.53;;;15.17;43.96
34979;BME280;21185;50.978;13.720;2023-05-03T11:25:41;99340.59;;;15.20;43.97
34979;BME280;21185;50.978;13.720;2023-05-03T11:30:45;99341.59;;;15.19;43.91
34979;BME280;21185;50.978;13.720;2023-05-03T11:35:48;99340.28;;;15.23;43.75
34979;BME280;21185;50.978;13.720;2023-05-03T11:40:49;99337.97;;;15.20;43.73
34979;BME280;21185;50.978;13.720;2023-05-03T11:45:55;99339.28;;;15.16;43.53
34979;BME280;21185;50.978;13.720;2023-05-03T11:50:59;99332.09;;;15.18;43.63
34979;BME280;21185;50.978;13.720;2023-05-03T11:56:10;99342.56;;;15.26;43.73
34979;BME280;21185;50.978;13.720;2023-05-03T12:01:14;99342.06;;;15.22;43.62
34979;BME280;21185;50.978;13.720;2023-05-03T12:06:17;99354.34;;;15.14;43.12
34979;BME280;21185;50.978;13.720;2023-05-03T12:11:19;99339.13;;;15.09;43.77
34979;BME280;21185;50.978;13.720;2023-05-03T12:16:26;99335.06;;;15.07;43.79
34979;BME280;21185;50.978;13.720;2023-05-03T12:21:45;99328.19;;;15.14;43.55
34979;BME280;21185;50.978;13.720;2023-05-03T12:27:08;99335.69;;;15.25;43.55
34979;BME280;21185;50.978;13.720;2023-05-03T12:32:09;99329.16;;;15.29;43.39
34979;BME280;21185;50.978;13.720;2023-05-03T12:37:12;99324.56;;;15.31;43.47
34979;BME280;21185;50.978;13.720;2023-05-03T12:42:18;99323.75;;;15.31;43.16
34979;BME280;21185;50.978;13.720;2023-05-03T12:47:22;99322.28;;;15.28;43.08
34979;BME280;21185;50.978;13.720;2023-05-03T12:52:30;99314.09;;;15.31;43.54
34979;BME280;21185;50.978;13.720;2023-05-03T12:57:39;99290.25;;;15.26;43.37
34979;BME280;21185;50.978;13.720;2023-05-03T13:02:46;99302.66;;;15.32;43.41
34979;BME280;21185;50.978;13.720;2023-05-03T13:07:50;99295.47;;;15.34;42.77
34979;BME280;21185;50.978;13.720;2023-05-03T13:12:57;99285.47;;;15.38;43.23
34979;BME280;21185;50.978;13.720;2023-05-03T13:17:59;99284.84;;;15.36;42.88
34979;BME280;21185;50.978;13.720;2023-05-03T13:23:04;99293.50;;;15.36;42.74
34979;BME280;21185;50.978;13.720;2023-05-03T13:28:05;99292.03;;;15.34;42.81
34979;BME280;21185;50.978;13.720;2023-05-03T13:33:07;99282.41;;;15.34;42.98
34979;BME280;21185;50.978;13.720;2023-05-03T13:38:09;99280.09;;;15.39;42.99
34979;BME280;21185;50.978;13.720;2023-05-03T13:43:11;99285.47;;;15.46;42.82
34979;BME280;21185;50.978;13.720;2023-05-03T13:48:13;99279.22;;;15.55;42.87
34979;BME280;21185;50.978;13.720;2023-05-03T13:53:20;99265.16;;;15.56;43.08
34979;BME280;21185;50.978;13.720;2023-05-03T13:58:22;99259.78;;;15.58;42.93
34979;BME280;21185;50.978;13.720;2023-05-03T14:03:23;99260.06;;;15.63;42.71
34979;BME280;21185;50.978;13.720;2023-05-03T14:08:26;99255.94;;;15.68;42.37
34979;BME280;21185;50.978;13.720;2023-05-03T14:13:28;99260.34;;;15.68;42.55
34979;BME280;21185;50.978;13.720;2023-05-03T14:18:41;99256.41;;;15.72;42.45
34979;BME280;21185;50.978;13.720;2023-05-03T14:23:46;99249.03;;;15.75;41.80
34979;BME280;21185;50.978;13.720;2023-05-03T14:28:50;99252.44;;;15.84;41.71
34979;BME280;21185;50.978;13.720;2023-05-03T14:33:52;99244.53;;;15.92;41.45
34979;BME280;21185;50.978;13.720;2023-05-03T14:38:54;99250.88;;;15.98;41.79
34979;BME280;21185;50.978;13.720;2023-05-03T14:43:56;99236.28;;;16.03;41.68
34979;BME280;21185;50.978;13.720;2023-05-03T14:48:58;99238.50;;;16.14;41.57
34979;BME280;21185;50.978;13.720;2023-05-03T14:54:02;99240.72;;;16.26;41.46
34979;BME280;21185;50.978;13.720;2023-05-03T14:59:04;99243.63;;;16.31;41.10
34979;BME280;21185;50.978;13.720;2023-05-03T15:04:08;99242.06;;;16.22;41.24
34979;BME280;21185;50.978;13.720;2023-05-03T15:09:11;99239.78;;;16.18;41.29
34979;BME280;21185;50.978;13.720;2023-05-03T15:14:13;99248.22;;;16.29;41.44
34979;BME280;21185;50.978;13.720;2023-05-03T15:19:15;99236.53;;;16.39;41.66
34979;BME280;21185;50.978;13.720;2023-05-03T15:24:17;99238.44;;;16.45;41.53
34979;BME280;21185;50.978;13.720;2023-05-03T15:29:19;99234.66;;;16.48;41.45
34979;BME280;21185;50.978;13.720;2023-05-03T15:34:22;99236.91;;;16.51;41.28
34979;BME280;21185;50.978;13.720;2023-05-03T15:39:24;99222.91;;;16.44;41.39
34979;BME280;21185;50.978;13.720;2023-05-03T15:44:26;99227.38;;;16.35;41.31
34979;BME280;21185;50.978;13.720;2023-05-03T15:49:28;99229.19;;;16.35;41.18
34979;BME280;21185;50.978;13.720;2023-05-03T15:54:29;99223.66;;;16.30;41.19
34979;BME280;21185;50.978;13.720;2023-05-03T15:59:31;99219.75;;;16.26;41.42
34979;BME280;21185;50.978;13.720;2023-05-03T16:04:33;99219.06;;;16.09;41.51
34979;BME280;21185;50.978;13.720;2023-05-03T16:09:37;99218.78;;;16.04;41.46
34979;BME280;21185;50.978;13.720;2023-05-03T16:14:39;99213.00;;;16.08;41.41
34979;BME280;21185;50.978;13.720;2023-05-03T16:19:41;99206.44;;;16.12;41.46
34979;BME280;21185;50.978;13.720;2023-05-03T16:24:44;99207.09;;;16.14;41.15
34979;BME280;21185;50.978;13.720;2023-05-03T16:29:47;99194.16;;;16.13;41.37
34979;BME280;21185;50.978;13.720;2023-05-03T16:34:49;99188.47;;;16.09;41.23
34979;BME280;21185;50.978;13.720;2023-05-03T16:39:52;99188.19;;;16.04;41.47
34979;BME280;21185;50.978;13.720;2023-05-03T16:44:54;99175.31;;;15.95;41.37
34979;BME280;21185;50.978;13.720;2023-05-03T16:49:56;99174.25;;;15.81;41.54
34979;BME280;21185;50.978;13.720;2023-05-03T16:54:58;99179.84;;;15.78;41.69
34979;BME280;21185;50.978;13.720;2023-05-03T17:00:00;99170.72;;;15.74;41.71
34979;BME280;21185;50.978;13.720;2023-05-03T17:05:10;99174.72;;;15.62;41.74
34979;BME280;21185;50.978;13.720;2023-05-03T17:10:13;99177.72;;;15.50;41.81
34979;BME280;21185;50.978;13.720;2023-05-03T17:15:15;99184.78;;;15.42;41.77
34979;BME280;21185;50.978;13.720;2023-05-03T17:20:18;99176.97;;;15.34;41.91
34979;BME280;21185;50.978;13.720;2023-05-03T17:25:20;99179.44;;;15.27;41.90
34979;BME280;21185;50.978;13.720;2023-05-03T17:30:22;99179.31;;;15.20;41.91
34979;BME280;21185;50.978;13.720;2023-05-03T17:35:24;99178.19;;;15.15;41.97
34979;BME280;21185;50.978;13.720;2023-05-03T17:40:26;99178.53;;;15.12;42.06
34979;BME280;21185;50.978;13.720;2023-05-03T17:45:28;99180.84;;;15.07;42.37
34979;BME280;21185;50.978;13.720;2023-05-03T17:50:30;99177.78;;;14.95;42.40
34979;BME280;21185;50.978;13.720;2023-05-03T17:55:35;99184.47;;;14.89;42.63
34979;BME280;21185;50.978;13.720;2023-05-03T18:00:40;99188.41;;;14.85;42.40
34979;BME280;21185;50.978;13.720;2023-05-03T18:05:44;99188.09;;;14.80;42.72
34979;BME280;21185;50.978;13.720;2023-05-03T18:10:46;99183.38;;;14.76;42.77
34979;BME280;21185;50.978;13.720;2023-05-03T18:15:48;99193.84;;;14.68;42.98
34979;BME280;21185;50.978;13.720;2023-05-03T18:21:00;99205.78;;;14.54;43.30
34979;BME280;21185;50.978;13.720;2023-05-03T18:26:02;99205.13;;;14.44;43.34
34979;BME280;21185;50.978;13.720;2023-05-03T18:31:05;99207.72;;;14.36;43.44
34979;BME280;21185;50.978;13.720;2023-05-03T18:36:07;99210.63;;;14.24;43.82
34979;BME280;21185;50.978;13.720;2023-05-03T18:41:12;99204.75;;;14.14;44.01
34979;BME280;21185;50.978;13.720;2023-05-03T18:46:17;99216.66;;;14.01;44.08
34979;BME280;21185;50.978;13.720;2023-05-03T18:51:19;99218.59;;;13.90;44.32
34979;BME280;21185;50.978;13.720;2023-05-03T18:56:21;99214.19;;;13.83;44.53
34979;BME280;21185;50.978;13.720;2023-05-03T19:01:23;99218.25;;;13.77;44.43
34979;BME280;21185;50.978;13.720;2023-05-03T19:06:27;99225.22;;;13.69;44.75
34979;BME280;21185;50.978;13.720;2023-05-03T19:11:29;99227.81;;;13.60;44.87
34979;BME280;21185;50.978;13.720;2023-05-03T19:16:31;99242.13;;;13.56;44.92
34979;BME280;21185;50.978;13.720;2023-05-03T19:21:33;99233.16;;;13.51;44.95
34979;BME280;21185;50.978;13.720;2023-05-03T19:26:38;99234.59;;;13.45;45.08
34979;BME280;21185;50.978;13.720;2023-05-03T19:31:40;99236.84;;;13.40;45.19
34979;BME280;21185;50.978;13.720;2023-05-03T19:36:42;99223.47;;;13.35;45.10
34979;BME280;21185;50.978;13.720;2023-05-03T19:41:44;99223.13;;;13.30;45.10
34979;BME280;21185;50.978;13.720;2023-05-03T19:46:47;99226.34;;;13.24;45.06
34979;BME280;21185;50.978;13.720;2023-05-03T19:51:50;99224.22;;;13.19;45.12
34979;BME280;21185;50.978;13.720;2023-05-03T19:56:54;99224.00;;;13.13;45.20
34979;BME280;21185;50.978;13.720;2023-05-03T20:01:56;99233.25;;;13.07;45.21
34979;BME280;21185;50.978;13.720;2023-05-03T20:06:58;99232.06;;;13.02;45.24
34979;BME280;21185;50.978;13.720;2023-05-03T20:12:00;99237.91;;;12.95;45.26
34979;BME280;21185;50.978;13.720;2023-05-03T20:17:03;99237.53;;;12.90;45.24
34979;BME280;21185;50.978;13.720;2023-05-03T20:22:04;99235.53;;;12.84;45.20
34979;BME280;21185;50.978;13.720;2023-05-03T20:27:07;99228.19;;;12.80;45.36
34979;BME280;21185;50.978;13.720;2023-05-03T20:32:08;99230.44;;;12.75;45.37
34979;BME280;21185;50.978;13.720;2023-05-03T20:37:11;99228.94;;;12.72;45.42
34979;BME280;21185;50.978;13.720;2023-05-03T20:42:12;99226.97;;;12.66;45.51
34979;BME280;21185;50.978;13.720;2023-05-03T20:47:14;99223.03;;;12.62;45.54
34979;BME280;21185;50.978;13.720;2023-05-03T20:52:16;99224.28;;;12.58;45.63
34979;BME280;21185;50.978;13.720;2023-05-03T20:57:18;99222.16;;;12.53;45.71
34979;BME280;21185;50.978;13.720;2023-05-03T21:02:20;99229.59;;;12.48;45.74
34979;BME280;21185;50.978;13.720;2023-05-03T21:07:22;99223.88;;;12.45;45.74
34979;BME280;21185;50.978;13.720;2023-05-03T21:12:24;99216.50;;;12.40;45.86
34979;BME280;21185;50.978;13.720;2023-05-03T21:17:26;99218.75;;;12.35;45.93
34979;BME280;21185;50.978;13.720;2023-05-03T21:22:28;99212.34;;;12.29;46.03
34979;BME280;21185;50.978;13.720;2023-05-03T21:27:30;99215.25;;;12.26;46.06
34979;BME280;21185;50.978;13.720;2023-05-03T21:32:32;99201.88;;;12.21;46.12
34979;BME280;21185;50.978;13.720;2023-05-03T21:37:34;99208.19;;;12.19;46.16
34979;BME280;21185;50.978;13.720;2023-05-03T21:42:36;99204.41;;;12.13;46.45
34979;BME280;21185;50.978;13.720;2023-05-03T21:47:38;99204.19;;;12.07;46.58
34979;BME280;21185;50.978;13.720;2023-05-03T21:52:40;99204.50;;;12.04;46.77
34979;BME280;21185;50.978;13.720;2023-05-03T21:57:42;99214.66;;;11.97;46.94
34979;BME280;21185;50.978;13.720;2023-05-03T22:02:44;99208.72;;;11.87;46.91
34979;BME280;21185;50.978;13.720;2023-05-03T22:07:46;99209.97;;;11.83;47.02
34979;BME280;21185;50.978;13.720;2023-05-03T22:12:49;99209.31;;;11.81;47.07
34979;BME280;21185;50.978;13.720;2023-05-03T22:17:51;99210.41;;;11.78;47.14
34979;BME280;21185;50.978;13.720;2023-05-03T22:22:52;99215.34;;;11.72;47.30
34979;BME280;21185;50.978;13.720;2023-05-03T22:27:54;99204.28;;;11.69;47.24
34979;BME280;21185;50.978;13.720;2023-05-03T22:32:56;99202.66;;;11.68;47.40
34979;BME280;21185;50.978;13.720;2023-05-03T22:37:58;99203.91;;;11.64;47.41
34979;BME280;21185;50.978;13.720;2023-05-03T22:43:00;99202.84;;;11.57;47.41
34979;BME280;21185;50.978;13.720;2023-05-03T22:48:02;99197.28;;;11.52;47.41
34979;BME280;21185;50.978;13.720;2023-05-03T22:53:05;99190.88;;;11.47;47.56
34979;BME280;21185;50.978;13.720;2023-05-03T22:58:07;99185.16;;;11.43;47.48
34979;BME280;21185;50.978;13.720;2023-05-03T23:03:08;99192.56;;;11.38;47.55
34979;BME280;21185;50.978;13.720;2023-05-03T23:08:12;99189.56;;;11.33;47.59
34979;BME280;21185;50.978;13.720;2023-05-03T23:13:14;99196.97;;;11.28;47.68
34979;BME280;21185;50.978;13.720;2023-05-03T23:18:17;99188.94;;;11.21;47.71
34979;BME280;21185;50.978;13.720;2023-05-03T23:23:19;99187.47;;;11.19;47.82
34979;BME280;21185;50.978;13.720;2023-05-03T23:28:21;99184.31;;;11.15;47.89
34979;BME280;21185;50.978;13.720;2023-05-03T23:33:23;99185.44;;;11.13;47.93
34979;BME280;21185;50.978;13.720;2023-05-03T23:38:26;99183.41;;;11.07;47.93
34979;BME280;21185;50.978;13.720;2023-05-03T23:43:28;99176.03;;;11.02;48.01
34979;BME280;21185;50.978;13.720;2023-05-03T23:48:30;99174.00;;;10.96;48.19
34979;BME280;21185;50.978;13.720;2023-05-03T23:53:32;99168.44;;;10.91;48.00
34979;BME280;21185;50.978;13.720;2023-05-03T23:58:33;99165.16;;;10.89;48.16
